sensor_id;sensor_type;location;lat;lon;timestamp;P1;durP1;ratioP1;P2;durP2;ratioP2
17065;SDS011;23120;52.336;21.182;2023-04-24T00:00:40;0.20;;;0.20;;
17065;SDS011;23120;52.336;21.182;2023-04-24T00:03:07;0.20;;;0.20;;
17065;SDS011;23120;52.336;21.182;2023-04-24T00:05:35;0.20;;;0.20;;
17065;SDS011;23120;52.336;21.182;2023-04-24T00:08:02;0.20;;;0.20;;
17065;SDS011;23120;52.336;21.182;2023-04-24T00:10:29;0.20;;;0.20;;
17065;SDS011;23120;52.336;21.182;2023-04-24T00:12:56;0.20;;;0.20;;
17065;SDS011;23120;52.336;21.182;2023-04-24T00:15:23;0.20;;;0.20;;
17065;SDS011;23120;52.336;21.182;2023-04-24T00:17:49;0.20;;;0.20;;
17065;SDS011;23120;52.336;21.182;2023-04-24T00:20:17;0.20;;;0.20;;
17065;SDS011;23120;52.336;21.182;2023-04-24T00:22:45;0.20;;;0.20;;
17065;SDS011;23120;52.336;21.182;2023-04-24T00:25:12;0.20;;;0.20;;
17065;SDS011;23120;52.336;21.182;2023-04-24T00:27:39;0.20;;;0.20;;
17065;SDS011;23120;52.336;21.182;2023-04-24T00:30:06;0.10;;;0.10;;
17065;SDS011;23120;52.336;21.182;2023-04-24T00:32:33;0.17;;;0.17;;
17065;SDS011;23120;52.336;21.182;2023-04-24T00:35:00;0.20;;;0.20;;
17065;SDS011;23120;52.336;21.182;2023-04-24T00:37:27;0.20;;;0.20;;
17065;SDS011;23120;52.336;21.182;2023-04-24T00:39:55;0.20;;;0.20;;
17065;SDS011;23120;52.336;21.182;2023-04-24T00:42:22;0.20;;;0.20;;
17065;SDS011;23120;52.336;21.182;2023-04-24T00:44:49;0.20;;;0.20;;
17065;SDS011;23120;52.336;21.182;2023-04-24T00:47:17;0.20;;;0.20;;
17065;SDS011;23120;52.336;21.182;2023-04-24T00:49:47;0.20;;;0.20;;
17065;SDS011;23120;52.336;21.182;2023-04-24T00:52:14;0.20;;;0.20;;
17065;SDS011;23120;52.336;21.182;2023-04-24T00:54:42;0.20;;;0.20;;
17065;SDS011;23120;52.336;21.182;2023-04-24T00:57:11;0.20;;;0.20;;
17065;SDS011;23120;52.336;21.182;2023-04-24T00:59:39;0.20;;;0.20;;
17065;SDS011;23120;52.336;21.182;2023-04-24T01:02:07;0.20;;;0.20;;
17065;SDS011;23120;52.336;21.182;2023-04-24T01:04:34;0.20;;;0.20;;
17065;SDS011;23120;52.336;21.182;2023-04-24T01:07:01;0.20;;;0.20;;
17065;SDS011;23120;52.336;21.182;2023-04-24T01:09:28;0.20;;;0.20;;
17065;SDS011;23120;52.336;21.182;2023-04-24T01:11:56;0.20;;;0.20;;
17065;SDS011;23120;52.336;21.182;2023-04-24T01:14:25;0.20;;;0.20;;
17065;SDS011;23120;52.336;21.182;2023-04-24T01:16:52;0.20;;;0.20;;
17065;SDS011;23120;52.336;21.182;2023-04-24T01:19:19;0.20;;;0.20;;
17065;SDS011;23120;52.336;21.182;2023-04-24T01:21:46;0.20;;;0.20;;
17065;SDS011;23120;52.336;21.182;2023-04-24T01:24:18;0.20;;;0.20;;
17065;SDS011;23120;52.336;21.182;2023-04-24T01:26:45;0.20;;;0.20;;
17065;SDS011;23120;52.336;21.182;2023-04-24T01:29:13;0.20;;;0.20;;
17065;SDS011;23120;52.336;21.182;2023-04-24T01:31:42;0.20;;;0.20;;
17065;SDS011;23120;52.336;21.182;2023-04-24T01:34:09;0.20;;;0.20;;
17065;SDS011;23120;52.336;21.182;2023-04-24T01:36:36;0.20;;;0.20;;
17065;SDS011;23120;52.336;21.182;2023-04-24T01:39:05;0.20;;;0.20;;
17065;SDS011;23120;52.336;21.182;2023-04-24T01:41:33;0.20;;;0.20;;
17065;SDS011;23120;52.336;21.182;2023-04-24T01:44:00;0.20;;;0.20;;
17065;SDS011;23120;52.336;21.182;2023-04-24T01:46:27;0.20;;;0.20;;
17065;SDS011;23120;52.336;21.182;2023-04-24T01:48:56;0.20;;;0.20;;
17065;SDS011;23120;52.336;21.182;2023-04-24T01:51:25;0.20;;;0.20;;
17065;SDS011;23120;52.336;21.182;2023-04-24T01:53:52;0.20;;;0.20;;
17065;SDS011;23120;52.336;21.182;2023-04-24T01:56:19;0.20;;;0.20;;
17065;SDS011;23120;52.336;21.182;2023-04-24T01:58:48;0.20;;;0.20;;
17065;SDS011;23120;52.336;21.182;2023-04-24T02:01:17;0.20;;;0.20;;
17065;SDS011;23120;52.336;21.182;2023-04-24T02:03:46;0.20;;;0.20;;
17065;SDS011;23120;52.336;21.182;2023-04-24T02:06:13;0.20;;;0.20;;
17065;SDS011;23120;52.336;21.182;2023-04-24T02:08:40;0.20;;;0.20;;
17065;SDS011;23120;52.336;21.182;2023-04-24T02:11:08;0.20;;;0.20;;
17065;SDS011;23120;52.336;21.182;2023-04-24T02:13:35;0.20;;;0.20;;
17065;SDS011;23120;52.336;21.182;2023-04-24T02:16:03;0.20;;;0.20;;
17065;SDS011;23120;52.336;21.182;2023-04-24T02:18:30;0.20;;;0.20;;
17065;SDS011;23120;52.336;21.182;2023-04-24T02:20:57;0.20;;;0.20;;
17065;SDS011;23120;52.336;21.182;2023-04-24T02:23:24;0.20;;;0.20;;
17065;SDS011;23120;52.336;21.182;2023-04-24T02:25:52;0.20;;;0.20;;
17065;SDS011;23120;52.336;21.182;2023-04-24T02:28:19;0.20;;;0.20;;
17065;SDS011;23120;52.336;21.182;2023-04-24T02:30:46;0.20;;;0.20;;
17065;SDS011;23120;52.336;21.182;2023-04-24T02:33:14;0.20;;;0.20;;
17065;SDS011;23120;52.336;21.182;2023-04-24T02:35:41;0.20;;;0.20;;
17065;SDS011;23120;52.336;21.182;2023-04-24T02:38:08;0.20;;;0.20;;
17065;SDS011;23120;52.336;21.182;2023-04-24T02:40:35;0.20;;;0.20;;
17065;SDS011;23120;52.336;21.182;2023-04-24T02:43:02;0.20;;;0.20;;
17065;SDS011;23120;52.336;21.182;2023-04-24T02:45:29;0.20;;;0.20;;
17065;SDS011;23120;52.336;21.182;2023-04-24T02:47:56;0.20;;;0.20;;
17065;SDS011;23120;52.336;21.182;2023-04-24T02:50:24;0.20;;;0.20;;
17065;SDS011;23120;52.336;21.182;2023-04-24T02:52:50;0.20;;;0.20;;
17065;SDS011;23120;52.336;21.182;2023-04-24T02:55:17;0.20;;;0.20;;
17065;SDS011;23120;52.336;21.182;2023-04-24T02:57:44;0.20;;;0.20;;
17065;SDS011;23120;52.336;21.182;2023-04-24T03:00:11;0.20;;;0.20;;
17065;SDS011;23120;52.336;21.182;2023-04-24T03:02:39;0.20;;;0.20;;
17065;SDS011;23120;52.336;21.182;2023-04-24T03:05:06;0.20;;;0.20;;
17065;SDS011;23120;52.336;21.182;2023-04-24T03:07:35;0.20;;;0.20;;
17065;SDS011;23120;52.336;21.182;2023-04-24T03:10:02;0.20;;;0.20;;
17065;SDS011;23120;52.336;21.182;2023-04-24T03:12:30;0.20;;;0.20;;
17065;SDS011;23120;52.336;21.182;2023-04-24T03:14:56;0.20;;;0.20;;
17065;SDS011;23120;52.336;21.182;2023-04-24T03:17:23;0.20;;;0.20;;
17065;SDS011;23120;52.336;21.182;2023-04-24T03:19:50;0.20;;;0.20;;
17065;SDS011;23120;52.336;21.182;2023-04-24T03:22:17;0.20;;;0.20;;
17065;SDS011;23120;52.336;21.182;2023-04-24T03:24:45;0.10;;;0.10;;
17065;SDS011;23120;52.336;21.182;2023-04-24T03:27:15;0.20;;;0.20;;
17065;SDS011;23120;52.336;21.182;2023-04-24T03:29:49;0.20;;;0.20;;
17065;SDS011;23120;52.336;21.182;2023-04-24T03:32:19;0.20;;;0.20;;
17065;SDS011;23120;52.336;21.182;2023-04-24T03:34:46;0.20;;;0.20;;
17065;SDS011;23120;52.336;21.182;2023-04-24T03:37:14;0.20;;;0.20;;
17065;SDS011;23120;52.336;21.182;2023-04-24T03:39:47;0.20;;;0.20;;
17065;SDS011;23120;52.336;21.182;2023-04-24T03:42:17;0.20;;;0.20;;
17065;SDS011;23120;52.336;21.182;2023-04-24T03:44:50;0.20;;;0.20;;
17065;SDS011;23120;52.336;21.182;2023-04-24T03:47:19;0.20;;;0.20;;
17065;SDS011;23120;52.336;21.182;2023-04-24T03:49:47;0.20;;;0.20;;
17065;SDS011;23120;52.336;21.182;2023-04-24T03:52:14;0.20;;;0.20;;
17065;SDS011;23120;52.336;21.182;2023-04-24T03:54:41;0.20;;;0.20;;
17065;SDS011;23120;52.336;21.182;2023-04-24T03:57:10;0.20;;;0.20;;
17065;SDS011;23120;52.336;21.182;2023-04-24T03:59:42;0.20;;;0.20;;
17065;SDS011;23120;52.336;21.182;2023-04-24T04:02:14;0.20;;;0.20;;
17065;SDS011;23120;52.336;21.182;2023-04-24T04:04:41;0.20;;;0.20;;
17065;SDS011;23120;52.336;21.182;2023-04-24T04:07:09;0.20;;;0.20;;
17065;SDS011;23120;52.336;21.182;2023-04-24T04:09:36;0.20;;;0.20;;
17065;SDS011;23120;52.336;21.182;2023-04-24T04:12:03;0.20;;;0.20;;
17065;SDS011;23120;52.336;21.182;2023-04-24T04:14:33;0.20;;;0.20;;
17065;SDS011;23120;52.336;21.182;2023-04-24T04:17:01;0.20;;;0.20;;
17065;SDS011;23120;52.336;21.182;2023-04-24T04:19:28;0.20;;;0.20;;
17065;SDS011;23120;52.336;21.182;2023-04-24T04:21:55;0.20;;;0.20;;
17065;SDS011;23120;52.336;21.182;2023-04-24T04:24:28;0.20;;;0.20;;
17065;SDS011;23120;52.336;21.182;2023-04-24T04:26:57;0.20;;;0.20;;
17065;SDS011;23120;52.336;21.182;2023-04-24T04:29:28;0.20;;;0.20;;
17065;SDS011;23120;52.336;21.182;2023-04-24T04:31:58;0.20;;;0.20;;
17065;SDS011;23120;52.336;21.182;2023-04-24T04:34:26;0.20;;;0.20;;
17065;SDS011;23120;52.336;21.182;2023-04-24T04:36:53;0.20;;;0.20;;
17065;SDS011;23120;52.336;21.182;2023-04-24T04:39:26;0.20;;;0.20;;
17065;SDS011;23120;52.336;21.182;2023-04-24T04:42:00;0.20;;;0.20;;
17065;SDS011;23120;52.336;21.182;2023-04-24T04:44:34;0.20;;;0.20;;
17065;SDS011;23120;52.336;21.182;2023-04-24T04:47:05;0.20;;;0.20;;
17065;SDS011;23120;52.336;21.182;2023-04-24T04:49:36;0.20;;;0.20;;
17065;SDS011;23120;52.336;21.182;2023-04-24T04:52:06;0.20;;;0.20;;
17065;SDS011;23120;52.336;21.182;2023-04-24T04:54:33;0.20;;;0.20;;
17065;SDS011;23120;52.336;21.182;2023-04-24T04:57:00;0.20;;;0.20;;
17065;SDS011;23120;52.336;21.182;2023-04-24T04:59:27;0.20;;;0.20;;
17065;SDS011;23120;52.336;21.182;2023-04-24T05:02:01;0.20;;;0.20;;
17065;SDS011;23120;52.336;21.182;2023-04-24T05:04:29;0.30;;;0.30;;
17065;SDS011;23120;52.336;21.182;2023-04-24T05:06:56;0.20;;;0.20;;
17065;SDS011;23120;52.336;21.182;2023-04-24T05:09:25;0.20;;;0.20;;
17065;SDS011;23120;52.336;21.182;2023-04-24T05:11:55;0.20;;;0.20;;
17065;SDS011;23120;52.336;21.182;2023-04-24T05:14:26;0.20;;;0.20;;
17065;SDS011;23120;52.336;21.182;2023-04-24T05:16:53;0.20;;;0.20;;
17065;SDS011;23120;52.336;21.182;2023-04-24T05:19:23;0.20;;;0.20;;
17065;SDS011;23120;52.336;21.182;2023-04-24T05:21:51;0.20;;;0.20;;
17065;SDS011;23120;52.336;21.182;2023-04-24T05:24:18;0.20;;;0.20;;
17065;SDS011;23120;52.336;21.182;2023-04-24T05:27:02;0.20;;;0.20;;
17065;SDS011;23120;52.336;21.182;2023-04-24T05:29:35;0.20;;;0.20;;
17065;SDS011;23120;52.336;21.182;2023-04-24T05:32:03;0.20;;;0.20;;
17065;SDS011;23120;52.336;21.182;2023-04-24T05:34:31;0.20;;;0.20;;
17065;SDS011;23120;52.336;21.182;2023-04-24T05:36:59;0.20;;;0.20;;
17065;SDS011;23120;52.336;21.182;2023-04-24T05:39:25;0.20;;;0.20;;
17065;SDS011;23120;52.336;21.182;2023-04-24T05:41:53;0.20;;;0.20;;
17065;SDS011;23120;52.336;21.182;2023-04-24T05:44:23;0.20;;;0.20;;
17065;SDS011;23120;52.336;21.182;2023-04-24T05:46:49;0.30;;;0.30;;
17065;SDS011;23120;52.336;21.182;2023-04-24T05:49:17;0.20;;;0.20;;
17065;SDS011;23120;52.336;21.182;2023-04-24T05:51:44;0.20;;;0.20;;
17065;SDS011;23120;52.336;21.182;2023-04-24T05:54:13;0.20;;;0.20;;
17065;SDS011;23120;52.336;21.182;2023-04-24T05:56:40;0.20;;;0.20;;
17065;SDS011;23120;52.336;21.182;2023-04-24T05:59:07;0.20;;;0.20;;
17065;SDS011;23120;52.336;21.182;2023-04-24T06:01:35;0.20;;;0.20;;
17065;SDS011;23120;52.336;21.182;2023-04-24T06:04:08;0.20;;;0.20;;
17065;SDS011;23120;52.336;21.182;2023-04-24T06:06:35;0.20;;;0.20;;
17065;SDS011;23120;52.336;21.182;2023-04-24T06:09:03;0.20;;;0.20;;
17065;SDS011;23120;52.336;21.182;2023-04-24T06:11:31;0.20;;;0.20;;
17065;SDS011;23120;52.336;21.182;2023-04-24T06:13:58;0.20;;;0.20;;
17065;SDS011;23120;52.336;21.182;2023-04-24T06:16:45;0.20;;;0.20;;
17065;SDS011;23120;52.336;21.182;2023-04-24T06:19:24;0.23;;;0.23;;
17065;SDS011;23120;52.336;21.182;2023-04-24T06:21:50;0.20;;;0.20;;
17065;SDS011;23120;52.336;21.182;2023-04-24T06:24:17;0.20;;;0.20;;
17065;SDS011;23120;52.336;21.182;2023-04-24T06:26:45;0.20;;;0.20;;
17065;SDS011;23120;52.336;21.182;2023-04-24T06:29:12;0.20;;;0.20;;
17065;SDS011;23120;52.336;21.182;2023-04-24T06:31:39;0.20;;;0.20;;
17065;SDS011;23120;52.336;21.182;2023-04-24T06:34:06;0.20;;;0.20;;
17065;SDS011;23120;52.336;21.182;2023-04-24T06:36:33;0.20;;;0.20;;
17065;SDS011;23120;52.336;21.182;2023-04-24T06:39:03;0.20;;;0.20;;
17065;SDS011;23120;52.336;21.182;2023-04-24T06:41:30;0.20;;;0.20;;
17065;SDS011;23120;52.336;21.182;2023-04-24T06:43:58;0.20;;;0.20;;
17065;SDS011;23120;52.336;21.182;2023-04-24T06:46:25;0.20;;;0.20;;
17065;SDS011;23120;52.336;21.182;2023-04-24T06:48:52;0.20;;;0.20;;
17065;SDS011;23120;52.336;21.182;2023-04-24T06:51:21;0.20;;;0.20;;
17065;SDS011;23120;52.336;21.182;2023-04-24T06:53:48;0.20;;;0.20;;
17065;SDS011;23120;52.336;21.182;2023-04-24T06:56:16;0.20;;;0.20;;
17065;SDS011;23120;52.336;21.182;2023-04-24T06:58:43;0.10;;;0.10;;
17065;SDS011;23120;52.336;21.182;2023-04-24T07:01:11;0.10;;;0.10;;
17065;SDS011;23120;52.336;21.182;2023-04-24T07:03:38;0.20;;;0.20;;
17065;SDS011;23120;52.336;21.182;2023-04-24T07:06:05;0.20;;;0.20;;
17065;SDS011;23120;52.336;21.182;2023-04-24T07:08:32;0.20;;;0.20;;
17065;SDS011;23120;52.336;21.182;2023-04-24T07:10:59;0.20;;;0.20;;
17065;SDS011;23120;52.336;21.182;2023-04-24T07:13:26;0.20;;;0.20;;
17065;SDS011;23120;52.336;21.182;2023-04-24T07:15:53;0.20;;;0.20;;
17065;SDS011;23120;52.336;21.182;2023-04-24T07:18:22;0.10;;;0.10;;
17065;SDS011;23120;52.336;21.182;2023-04-24T07:20:49;0.10;;;0.10;;
17065;SDS011;23120;52.336;21.182;2023-04-24T07:23:16;0.20;;;0.20;;
17065;SDS011;23120;52.336;21.182;2023-04-24T07:25:43;0.10;;;0.10;;
17065;SDS011;23120;52.336;21.182;2023-04-24T07:28:10;0.10;;;0.10;;
17065;SDS011;23120;52.336;21.182;2023-04-24T07:30:37;0.10;;;0.10;;
17065;SDS011;23120;52.336;21.182;2023-04-24T07:33:04;0.10;;;0.10;;
17065;SDS011;23120;52.336;21.182;2023-04-24T07:35:33;0.10;;;0.10;;
17065;SDS011;23120;52.336;21.182;2023-04-24T07:38:01;0.10;;;0.10;;
17065;SDS011;23120;52.336;21.182;2023-04-24T07:40:27;0.10;;;0.10;;
17065;SDS011;23120;52.336;21.182;2023-04-24T07:42:54;0.10;;;0.10;;
17065;SDS011;23120;52.336;21.182;2023-04-24T07:45:22;0.10;;;0.10;;
17065;SDS011;23120;52.336;21.182;2023-04-24T07:47:51;0.10;;;0.10;;
17065;SDS011;23120;52.336;21.182;2023-04-24T07:50:18;0.10;;;0.10;;
17065;SDS011;23120;52.336;21.182;2023-04-24T07:52:46;0.10;;;0.10;;
17065;SDS011;23120;52.336;21.182;2023-04-24T07:55:13;0.10;;;0.10;;
17065;SDS011;23120;52.336;21.182;2023-04-24T07:57:40;0.10;;;0.10;;
17065;SDS011;23120;52.336;21.182;2023-04-24T08:00:08;0.10;;;0.10;;
17065;SDS011;23120;52.336;21.182;2023-04-24T08:02:38;0.10;;;0.10;;
17065;SDS011;23120;52.336;21.182;2023-04-24T08:05:06;0.10;;;0.10;;
17065;SDS011;23120;52.336;21.182;2023-04-24T08:07:33;0.10;;;0.10;;
17065;SDS011;23120;52.336;21.182;2023-04-24T08:10:02;0.10;;;0.10;;
17065;SDS011;23120;52.336;21.182;2023-04-24T08:12:30;0.10;;;0.10;;
17065;SDS011;23120;52.336;21.182;2023-04-24T08:14:57;0.10;;;0.10;;
17065;SDS011;23120;52.336;21.182;2023-04-24T08:17:23;0.10;;;0.10;;
17065;SDS011;23120;52.336;21.182;2023-04-24T08:19:50;0.10;;;0.10;;
17065;SDS011;23120;52.336;21.182;2023-04-24T08:22:18;0.10;;;0.10;;
17065;SDS011;23120;52.336;21.182;2023-04-24T08:24:45;0.10;;;0.10;;
17065;SDS011;23120;52.336;21.182;2023-04-24T08:27:13;0.00;;;0.00;;
17065;SDS011;23120;52.336;21.182;2023-04-24T08:29:40;0.10;;;0.10;;
17065;SDS011;23120;52.336;21.182;2023-04-24T08:32:07;0.10;;;0.10;;
17065;SDS011;23120;52.336;21.182;2023-04-24T08:34:34;0.10;;;0.10;;
17065;SDS011;23120;52.336;21.182;2023-04-24T08:37:01;0.10;;;0.10;;
17065;SDS011;23120;52.336;21.182;2023-04-24T08:39:28;0.10;;;0.10;;
17065;SDS011;23120;52.336;21.182;2023-04-24T08:41:55;0.10;;;0.10;;
17065;SDS011;23120;52.336;21.182;2023-04-24T08:44:23;0.00;;;0.00;;
17065;SDS011;23120;52.336;21.182;2023-04-24T08:46:50;0.05;;;0.05;;
17065;SDS011;23120;52.336;21.182;2023-04-24T08:49:18;0.10;;;0.10;;
17065;SDS011;23120;52.336;21.182;2023-04-24T08:51:46;0.00;;;0.00;;
17065;SDS011;23120;52.336;21.182;2023-04-24T08:54:15;0.00;;;0.00;;
17065;SDS011;23120;52.336;21.182;2023-04-24T08:56:45;0.00;;;0.00;;
17065;SDS011;23120;52.336;21.182;2023-04-24T08:59:14;0.00;;;0.00;;
17065;SDS011;23120;52.336;21.182;2023-04-24T09:01:43;0.00;;;0.00;;
17065;SDS011;23120;52.336;21.182;2023-04-24T09:04:13;0.00;;;0.00;;
17065;SDS011;23120;52.336;21.182;2023-04-24T09:06:43;0.00;;;0.00;;
17065;SDS011;23120;52.336;21.182;2023-04-24T09:09:10;0.00;;;0.00;;
17065;SDS011;23120;52.336;21.182;2023-04-24T09:11:37;0.00;;;0.00;;
17065;SDS011;23120;52.336;21.182;2023-04-24T09:14:04;0.10;;;0.10;;
17065;SDS011;23120;52.336;21.182;2023-04-24T09:16:32;0.10;;;0.10;;
17065;SDS011;23120;52.336;21.182;2023-04-24T09:19:01;0.20;;;0.20;;
17065;SDS011;23120;52.336;21.182;2023-04-24T09:21:31;0.08;;;0.08;;
17065;SDS011;23120;52.336;21.182;2023-04-24T09:23:58;0.10;;;0.10;;
17065;SDS011;23120;52.336;21.182;2023-04-24T09:26:28;0.00;;;0.00;;
17065;SDS011;23120;52.336;21.182;2023-04-24T09:28:57;0.00;;;0.00;;
17065;SDS011;23120;52.336;21.182;2023-04-24T09:31:26;0.00;;;0.00;;
17065;SDS011;23120;52.336;21.182;2023-04-24T09:33:55;0.00;;;0.00;;
17065;SDS011;23120;52.336;21.182;2023-04-24T09:36:31;0.10;;;0.10;;
17065;SDS011;23120;52.336;21.182;2023-04-24T09:38:59;0.05;;;0.05;;
17065;SDS011;23120;52.336;21.182;2023-04-24T09:41:27;0.00;;;0.00;;
17065;SDS011;23120;52.336;21.182;2023-04-24T09:43:55;0.00;;;0.00;;
17065;SDS011;23120;52.336;21.182;2023-04-24T09:46:29;0.00;;;0.00;;
17065;SDS011;23120;52.336;21.182;2023-04-24T09:48:56;0.10;;;0.10;;
17065;SDS011;23120;52.336;21.182;2023-04-24T09:51:34;0.00;;;0.00;;
17065;SDS011;23120;52.336;21.182;2023-04-24T09:54:03;0.10;;;0.10;;
17065;SDS011;23120;52.336;21.182;2023-04-24T09:56:32;0.00;;;0.00;;
17065;SDS011;23120;52.336;21.182;2023-04-24T09:59:04;0.10;;;0.10;;
17065;SDS011;23120;52.336;21.182;2023-04-24T10:01:31;0.10;;;0.10;;
17065;SDS011;23120;52.336;21.182;2023-04-24T10:03:58;0.10;;;0.10;;
17065;SDS011;23120;52.336;21.182;2023-04-24T10:06:29;0.10;;;0.10;;
17065;SDS011;23120;52.336;21.182;2023-04-24T10:09:00;0.05;;;0.05;;
17065;SDS011;23120;52.336;21.182;2023-04-24T10:11:27;0.00;;;0.00;;
17065;SDS011;23120;52.336;21.182;2023-04-24T10:13:54;0.00;;;0.00;;
17065;SDS011;23120;52.336;21.182;2023-04-24T10:16:22;0.00;;;0.00;;
17065;SDS011;23120;52.336;21.182;2023-04-24T10:18:52;0.00;;;0.00;;
17065;SDS011;23120;52.336;21.182;2023-04-24T10:21:19;0.00;;;0.00;;
17065;SDS011;23120;52.336;21.182;2023-04-24T10:23:46;0.03;;;0.03;;
17065;SDS011;23120;52.336;21.182;2023-04-24T10:26:16;0.08;;;0.08;;
17065;SDS011;23120;52.336;21.182;2023-04-24T10:28:45;0.00;;;0.00;;
17065;SDS011;23120;52.336;21.182;2023-04-24T10:31:12;0.10;;;0.10;;
17065;SDS011;23120;52.336;21.182;2023-04-24T10:33:39;0.00;;;0.00;;
17065;SDS011;23120;52.336;21.182;2023-04-24T10:36:08;0.10;;;0.10;;
17065;SDS011;23120;52.336;21.182;2023-04-24T10:38:36;0.10;;;0.10;;
17065;SDS011;23120;52.336;21.182;2023-04-24T10:41:07;0.10;;;0.10;;
17065;SDS011;23120;52.336;21.182;2023-04-24T10:43:37;0.00;;;0.00;;
17065;SDS011;23120;52.336;21.182;2023-04-24T10:46:06;0.00;;;0.00;;
17065;SDS011;23120;52.336;21.182;2023-04-24T10:48:33;0.10;;;0.10;;
17065;SDS011;23120;52.336;21.182;2023-04-24T10:51:00;0.00;;;0.00;;
17065;SDS011;23120;52.336;21.182;2023-04-24T10:53:28;0.00;;;0.00;;
17065;SDS011;23120;52.336;21.182;2023-04-24T10:56:02;0.10;;;0.10;;
17065;SDS011;23120;52.336;21.182;2023-04-24T10:58:38;0.00;;;0.00;;
17065;SDS011;23120;52.336;21.182;2023-04-24T11:01:10;0.03;;;0.03;;
17065;SDS011;23120;52.336;21.182;2023-04-24T11:03:50;0.00;;;0.00;;
17065;SDS011;23120;52.336;21.182;2023-04-24T11:06:23;0.00;;;0.00;;
17065;SDS011;23120;52.336;21.182;2023-04-24T11:08:59;0.00;;;0.00;;
17065;SDS011;23120;52.336;21.182;2023-04-24T11:11:29;0.00;;;0.00;;
17065;SDS011;23120;52.336;21.182;2023-04-24T11:14:05;0.00;;;0.00;;
17065;SDS011;23120;52.336;21.182;2023-04-24T11:16:36;0.00;;;0.00;;
17065;SDS011;23120;52.336;21.182;2023-04-24T11:19:06;0.00;;;0.00;;
17065;SDS011;23120;52.336;21.182;2023-04-24T11:21:40;0.00;;;0.00;;
17065;SDS011;23120;52.336;21.182;2023-04-24T11:24:24;0.00;;;0.00;;
17065;SDS011;23120;52.336;21.182;2023-04-24T11:26:56;0.00;;;0.00;;
17065;SDS011;23120;52.336;21.182;2023-04-24T11:29:39;0.00;;;0.00;;
17065;SDS011;23120;52.336;21.182;2023-04-24T11:32:14;0.10;;;0.10;;
17065;SDS011;23120;52.336;21.182;2023-04-24T11:34:46;0.00;;;0.00;;
17065;SDS011;23120;52.336;21.182;2023-04-24T11:37:14;0.10;;;0.10;;
17065;SDS011;23120;52.336;21.182;2023-04-24T11:39:43;0.05;;;0.05;;
17065;SDS011;23120;52.336;21.182;2023-04-24T11:42:14;0.10;;;0.10;;
17065;SDS011;23120;52.336;21.182;2023-04-24T11:44:45;0.00;;;0.00;;
17065;SDS011;23120;52.336;21.182;2023-04-24T11:47:17;0.00;;;0.00;;
17065;SDS011;23120;52.336;21.182;2023-04-24T11:49:44;0.10;;;0.10;;
17065;SDS011;23120;52.336;21.182;2023-04-24T11:52:11;0.10;;;0.10;;
17065;SDS011;23120;52.336;21.182;2023-04-24T11:54:46;0.10;;;0.10;;
17065;SDS011;23120;52.336;21.182;2023-04-24T11:57:15;0.00;;;0.00;;
17065;SDS011;23120;52.336;21.182;2023-04-24T11:59:42;0.10;;;0.10;;
17065;SDS011;23120;52.336;21.182;2023-04-24T12:02:18;0.00;;;0.00;;
17065;SDS011;23120;52.336;21.182;2023-04-24T12:04:47;0.00;;;0.00;;
17065;SDS011;23120;52.336;21.182;2023-04-24T12:07:14;0.10;;;0.10;;
17065;SDS011;23120;52.336;21.182;2023-04-24T12:09:43;0.10;;;0.10;;
17065;SDS011;23120;52.336;21.182;2023-04-24T12:12:12;0.10;;;0.10;;
17065;SDS011;23120;52.336;21.182;2023-04-24T12:17:28;0.10;;;0.10;;
17065;SDS011;23120;52.336;21.182;2023-04-24T12:19:57;0.00;;;0.00;;
17065;SDS011;23120;52.336;21.182;2023-04-24T12:22:25;0.10;;;0.10;;
17065;SDS011;23120;52.336;21.182;2023-04-24T12:24:56;0.10;;;0.10;;
17065;SDS011;23120;52.336;21.182;2023-04-24T12:27:28;0.10;;;0.10;;
17065;SDS011;23120;52.336;21.182;2023-04-24T12:29:56;0.10;;;0.10;;
17065;SDS011;23120;52.336;21.182;2023-04-24T12:32:25;0.10;;;0.10;;
17065;SDS011;23120;52.336;21.182;2023-04-24T12:34:53;0.10;;;0.10;;
17065;SDS011;23120;52.336;21.182;2023-04-24T12:37:22;0.10;;;0.10;;
17065;SDS011;23120;52.336;21.182;2023-04-24T12:39:59;0.10;;;0.10;;
17065;SDS011;23120;52.336;21.182;2023-04-24T12:42:27;0.08;;;0.08;;
17065;SDS011;23120;52.336;21.182;2023-04-24T12:44:56;0.10;;;0.10;;
17065;SDS011;23120;52.336;21.182;2023-04-24T12:47:25;0.10;;;0.10;;
17065;SDS011;23120;52.336;21.182;2023-04-24T12:49:54;0.10;;;0.10;;
17065;SDS011;23120;52.336;21.182;2023-04-24T12:52:21;0.10;;;0.10;;
17065;SDS011;23120;52.336;21.182;2023-04-24T12:54:49;0.10;;;0.10;;
17065;SDS011;23120;52.336;21.182;2023-04-24T12:57:16;0.10;;;0.10;;
17065;SDS011;23120;52.336;21.182;2023-04-24T12:59:43;0.10;;;0.10;;
17065;SDS011;23120;52.336;21.182;2023-04-24T13:02:09;0.10;;;0.10;;
17065;SDS011;23120;52.336;21.182;2023-04-24T13:04:37;0.10;;;0.10;;
17065;SDS011;23120;52.336;21.182;2023-04-24T13:07:06;0.10;;;0.10;;
17065;SDS011;23120;52.336;21.182;2023-04-24T13:09:34;0.10;;;0.10;;
17065;SDS011;23120;52.336;21.182;2023-04-24T13:12:01;0.10;;;0.10;;
17065;SDS011;23120;52.336;21.182;2023-04-24T13:14:27;0.10;;;0.10;;
17065;SDS011;23120;52.336;21.182;2023-04-24T13:16:54;0.00;;;0.00;;
17065;SDS011;23120;52.336;21.182;2023-04-24T13:19:21;0.10;;;0.10;;
17065;SDS011;23120;52.336;21.182;2023-04-24T13:21:50;0.10;;;0.10;;
17065;SDS011;23120;52.336;21.182;2023-04-24T13:24:18;0.10;;;0.10;;
17065;SDS011;23120;52.336;21.182;2023-04-24T13:26:45;0.10;;;0.10;;
17065;SDS011;23120;52.336;21.182;2023-04-24T13:29:12;0.10;;;0.10;;
17065;SDS011;23120;52.336;21.182;2023-04-24T13:31:39;0.10;;;0.10;;
17065;SDS011;23120;52.336;21.182;2023-04-24T13:34:07;0.20;;;0.20;;
17065;SDS011;23120;52.336;21.182;2023-04-24T13:36:34;0.10;;;0.10;;
17065;SDS011;23120;52.336;21.182;2023-04-24T13:39:01;0.10;;;0.10;;
17065;SDS011;23120;52.336;21.182;2023-04-24T13:41:29;0.10;;;0.10;;
17065;SDS011;23120;52.336;21.182;2023-04-24T13:43:56;0.10;;;0.10;;
17065;SDS011;23120;52.336;21.182;2023-04-24T13:46:23;0.10;;;0.10;;
17065;SDS011;23120;52.336;21.182;2023-04-24T13:48:50;0.10;;;0.10;;
17065;SDS011;23120;52.336;21.182;2023-04-24T13:51:17;0.20;;;0.20;;
17065;SDS011;23120;52.336;21.182;2023-04-24T13:53:44;0.10;;;0.10;;
17065;SDS011;23120;52.336;21.182;2023-04-24T13:56:11;0.10;;;0.10;;
17065;SDS011;23120;52.336;21.182;2023-04-24T13:58:40;0.10;;;0.10;;
17065;SDS011;23120;52.336;21.182;2023-04-24T14:01:07;0.10;;;0.10;;
17065;SDS011;23120;52.336;21.182;2023-04-24T14:03:34;0.20;;;0.20;;
17065;SDS011;23120;52.336;21.182;2023-04-24T14:06:03;0.20;;;0.20;;
17065;SDS011;23120;52.336;21.182;2023-04-24T14:08:31;0.20;;;0.20;;
17065;SDS011;23120;52.336;21.182;2023-04-24T14:10:58;0.10;;;0.10;;
17065;SDS011;23120;52.336;21.182;2023-04-24T14:13:25;0.10;;;0.10;;
17065;SDS011;23120;52.336;21.182;2023-04-24T14:15:54;0.13;;;0.13;;
17065;SDS011;23120;52.336;21.182;2023-04-24T14:18:20;0.20;;;0.20;;
17065;SDS011;23120;52.336;21.182;2023-04-24T14:20:47;0.10;;;0.10;;
17065;SDS011;23120;52.336;21.182;2023-04-24T14:23:14;0.13;;;0.13;;
17065;SDS011;23120;52.336;21.182;2023-04-24T14:25:42;0.10;;;0.10;;
17065;SDS011;23120;52.336;21.182;2023-04-24T14:28:09;0.17;;;0.17;;
17065;SDS011;23120;52.336;21.182;2023-04-24T14:30:36;0.20;;;0.20;;
17065;SDS011;23120;52.336;21.182;2023-04-24T14:33:07;0.20;;;0.20;;
17065;SDS011;23120;52.336;21.182;2023-04-24T14:35:33;0.10;;;0.10;;
17065;SDS011;23120;52.336;21.182;2023-04-24T14:38:00;0.10;;;0.10;;
17065;SDS011;23120;52.336;21.182;2023-04-24T14:40:27;0.10;;;0.10;;
17065;SDS011;23120;52.336;21.182;2023-04-24T14:42:54;0.10;;;0.10;;